createdAt,value
2023-01-10T00:00:08.860Z,100642.34
2023-01-10T00:00:35.289Z,100645.84
2023-01-10T00:00:58.007Z,100652.94
2023-01-10T00:01:19.592Z,100644.97
2023-01-10T00:01:41.194Z,100644.03
2023-01-10T00:02:02.868Z,100652.94
2023-01-10T00:02:25.630Z,100649.44
2023-01-10T00:02:47.569Z,100648.66
2023-01-10T00:03:11.457Z,100646.03
2023-01-10T00:03:34.629Z,100650.34
2023-01-10T00:03:56.277Z,100649.28
2023-01-10T00:04:18.968Z,100652.78
2023-01-10T00:04:40.757Z,100652.72
2023-01-10T00:05:02.435Z,100645.69
2023-01-10T00:05:24.014Z,100653.53
2023-01-10T00:05:47.518Z,100655.47
2023-01-10T00:06:09.241Z,100652.00
2023-01-10T00:06:31.148Z,100653.81
2023-01-10T00:06:53.181Z,100649.47
2023-01-10T00:07:15.906Z,100659.25
2023-01-10T00:07:37.617Z,100666.28
2023-01-10T00:07:59.307Z,100656.59
2023-01-10T00:08:21.898Z,100663.97
2023-01-10T00:08:43.557Z,100655.31
2023-01-10T00:09:05.254Z,100662.28
2023-01-10T00:09:26.881Z,100663.91
2023-01-10T00:09:48.597Z,100665.63
2023-01-10T00:10:11.986Z,100665.63
2023-01-10T00:10:34.804Z,100665.41
2023-01-10T00:10:56.454Z,100675.19
2023-01-10T00:11:36.543Z,100668.34
2023-01-10T00:12:16.897Z,100664.13
2023-01-10T00:13:02.076Z,100671.25
2023-01-10T00:13:23.777Z,100679.38
2023-01-10T00:13:45.545Z,100674.81
2023-01-10T00:14:07.177Z,100679.19
2023-01-10T00:14:30.393Z,100679.25
2023-01-10T00:14:52.672Z,100673.03
2023-01-10T00:15:14.365Z,100680.19
2023-01-10T00:15:36.670Z,100685.38
2023-01-10T00:15:59.476Z,100682.84
2023-01-10T00:16:22.043Z,100684.66
2023-01-10T00:16:43.665Z,100685.38
2023-01-10T00:17:05.440Z,100687.16
2023-01-10T00:17:28.005Z,100688.84
2023-01-10T00:17:49.636Z,100692.38
2023-01-10T00:18:11.699Z,100683.03
2023-01-10T00:18:34.638Z,100678.63
2023-01-10T00:18:57.314Z,100693.47
2023-01-10T00:19:18.985Z,100688.41
2023-01-10T00:19:40.700Z,100703.34
2023-01-10T00:20:02.305Z,100696.25
2023-01-10T00:20:25.832Z,100697.09
2023-01-10T00:20:49.057Z,100701.88
2023-01-10T00:21:10.745Z,100704.53
2023-01-10T00:21:32.375Z,100704.38
2023-01-10T00:21:55.005Z,100704.16
2023-01-10T00:22:23.396Z,100703.25
2023-01-10T00:22:45.414Z,100707.50
2023-01-10T00:23:07.050Z,100702.97
2023-01-10T00:23:28.665Z,100709.91
2023-01-10T00:23:51.560Z,100703.91
2023-01-10T00:24:18.869Z,100704.56
2023-01-10T00:24:41.448Z,100710.78
2023-01-10T00:25:03.358Z,100691.56
2023-01-10T00:25:26.077Z,100713.41
2023-01-10T00:25:47.756Z,100707.09
2023-01-10T00:26:09.934Z,100714.47
2023-01-10T00:26:31.652Z,100712.69
2023-01-10T00:26:54.111Z,100711.72
2023-01-10T00:27:23.434Z,100687.47
2023-01-10T00:27:45.587Z,100713.69
2023-01-10T00:28:19.466Z,100713.69
2023-01-10T00:28:43.195Z,100718.00
2023-01-10T00:29:06.858Z,100715.22
2023-01-10T00:29:31.390Z,100728.34
2023-01-10T00:29:53.344Z,100669.81
2023-01-10T00:30:16.289Z,100723.78
2023-01-10T00:30:38.465Z,100715.91
2023-01-10T00:31:01.794Z,100727.13
2023-01-10T00:31:23.464Z,100728.06
2023-01-10T00:31:45.269Z,100724.59
2023-01-10T00:32:07.928Z,100731.56
2023-01-10T00:32:29.536Z,100731.63
2023-01-10T00:32:51.220Z,100734.19
2023-01-10T00:33:19.687Z,100723.72
2023-01-10T00:33:43.649Z,100742.13
2023-01-10T00:34:07.861Z,100735.97
2023-01-10T00:34:31.409Z,100732.44
2023-01-10T00:34:53.232Z,100737.06
2023-01-10T00:35:15.961Z,100745.16
2023-01-10T00:35:37.575Z,100746.13
2023-01-10T00:35:59.776Z,100735.44
2023-01-10T00:36:21.664Z,100731.16
2023-01-10T00:36:47.803Z,100742.47
2023-01-10T00:37:09.584Z,100738.22
2023-01-10T00:37:31.216Z,100749.72
2023-01-10T00:37:58.643Z,100752.03
2023-01-10T00:38:20.258Z,100751.28
2023-01-10T00:38:41.841Z,100753.03
2023-01-10T00:39:09.895Z,100751.22
2023-01-10T00:39:32.459Z,100767.91
2023-01-10T00:39:54.427Z,100757.84
2023-01-10T00:40:16.507Z,100749.31
2023-01-10T00:40:38.134Z,100761.47
2023-01-10T00:41:00.807Z,100753.47
2023-01-10T00:41:40.957Z,100753.44
2023-01-10T00:42:20.772Z,100761.41
2023-01-10T00:43:00.816Z,100750.09
2023-01-10T00:43:41.068Z,100758.63
2023-01-10T00:44:03.325Z,100762.06
2023-01-10T00:44:26.043Z,100759.38
2023-01-10T00:44:47.784Z,100750.63
2023-01-10T00:45:11.798Z,100762.78
2023-01-10T00:45:33.443Z,100755.66
2023-01-10T00:45:55.314Z,100755.66
2023-01-10T00:46:17.167Z,100764.44
2023-01-10T00:46:38.877Z,100769.59
2023-01-10T00:47:01.419Z,100764.25
2023-01-10T00:47:23.192Z,100769.47
2023-01-10T00:47:44.787Z,100775.59
2023-01-10T00:48:06.619Z,100771.19
2023-01-10T00:48:28.297Z,100771.16
2023-01-10T00:48:51.351Z,100772.88
2023-01-10T00:49:16.244Z,100756.06
2023-01-10T00:49:37.840Z,100772.72
2023-01-10T00:49:59.476Z,100768.38
2023-01-10T00:50:21.059Z,100775.38
2023-01-10T00:50:44.377Z,100769.94
2023-01-10T00:51:06.125Z,100770.91
2023-01-10T00:51:27.732Z,100770.84
2023-01-10T00:51:49.601Z,100749.94
2023-01-10T00:52:11.311Z,100770.06
2023-01-10T00:52:33.934Z,100776.44
2023-01-10T00:52:55.539Z,100779.03
2023-01-10T00:53:17.171Z,100774.56
2023-01-10T00:53:38.806Z,100786.03
2023-01-10T00:54:00.390Z,100763.25
2023-01-10T00:54:22.976Z,100776.28
2023-01-10T00:54:44.589Z,100787.88
2023-01-10T00:55:07.576Z,100780.22
2023-01-10T00:55:29.507Z,100776.66
2023-01-10T00:55:51.251Z,100773.09
2023-01-10T00:56:13.843Z,100778.44
2023-01-10T00:56:35.605Z,100779.34
2023-01-10T00:56:57.401Z,100778.25
2023-01-10T00:57:18.979Z,100787.22
2023-01-10T00:57:41.611Z,100783.75
2023-01-10T00:58:03.704Z,100785.50
2023-01-10T00:58:25.413Z,100783.56
2023-01-10T00:58:47.064Z,100790.81
2023-01-10T00:59:09.969Z,100790.69
2023-01-10T00:59:31.576Z,100787.06
2023-01-10T00:59:53.245Z,100771.38
2023-01-10T01:00:15.282Z,100794.09
2023-01-10T01:00:38.124Z,100790.50
2023-01-10T01:00:59.846Z,100790.41
2023-01-10T01:01:21.753Z,100789.41
2023-01-10T01:01:43.473Z,100784.94
2023-01-10T01:02:06.514Z,100791.97
2023-01-10T01:02:28.407Z,100801.59
2023-01-10T01:02:51.625Z,100797.97
2023-01-10T01:03:14.075Z,100797.97
2023-01-10T01:03:37.024Z,100797.94
2023-01-10T01:04:00.206Z,100798.25
2023-01-10T01:04:22.528Z,100791.44
2023-01-10T01:04:44.303Z,100789.84
2023-01-10T01:05:07.838Z,100796.97
2023-01-10T01:05:29.524Z,100794.44
2023-01-10T01:05:52.323Z,100798.84
2023-01-10T01:06:14.018Z,100803.34
2023-01-10T01:06:36.969Z,100808.53
2023-01-10T01:07:00.108Z,100801.53
2023-01-10T01:07:21.700Z,100810.22
2023-01-10T01:07:43.287Z,100800.50
2023-01-10T01:08:05.198Z,100807.56
2023-01-10T01:08:27.882Z,100808.47
2023-01-10T01:08:49.525Z,100804.81
2023-01-10T01:09:11.281Z,100806.69
2023-01-10T01:09:32.981Z,100803.97
2023-01-10T01:10:13.145Z,100813.53
2023-01-10T01:10:35.809Z,100811.78
2023-01-10T01:10:57.503Z,100817.09
2023-01-10T01:11:19.249Z,100817.09
2023-01-10T01:11:41.207Z,100817.03
2023-01-10T01:12:03.816Z,100813.63
2023-01-10T01:12:25.587Z,100812.78
2023-01-10T01:12:47.221Z,100823.41
2023-01-10T01:13:10.488Z,100814.63
2023-01-10T01:13:33.312Z,100818.16
2023-01-10T01:13:55.008Z,100819.88
2023-01-10T01:14:16.698Z,100811.84
2023-01-10T01:14:38.396Z,100821.56
2023-01-10T01:15:01.272Z,100826.84
2023-01-10T01:15:23.105Z,100815.34
2023-01-10T01:15:45.440Z,100824.44
2023-01-10T01:16:07.835Z,100827.19
2023-01-10T01:16:30.579Z,100823.63
2023-01-10T01:16:52.314Z,100822.19
2023-01-10T01:17:13.888Z,100804.00
2023-01-10T01:17:35.576Z,100821.41
2023-01-10T01:17:58.284Z,100821.31
2023-01-10T01:18:21.754Z,100820.41
2023-01-10T01:18:43.449Z,100823.81
2023-01-10T01:19:06.571Z,100828.25
2023-01-10T01:19:29.296Z,100819.66
2023-01-10T01:19:50.965Z,100823.94
2023-01-10T01:20:12.823Z,100824.78
2023-01-10T01:20:34.694Z,100821.19
2023-01-10T01:21:01.059Z,100824.81
2023-01-10T01:21:27.959Z,100827.41
2023-01-10T01:21:49.758Z,100829.19
2023-01-10T01:22:11.446Z,100823.91
2023-01-10T01:22:34.065Z,100832.75
2023-01-10T01:22:55.781Z,100835.56
2023-01-10T01:23:17.372Z,100828.50
2023-01-10T01:23:40.037Z,100834.66
2023-01-10T01:24:01.748Z,100847.94
2023-01-10T01:24:24.945Z,100836.44
2023-01-10T01:24:46.738Z,100843.41
2023-01-10T01:25:10.223Z,100832.75
2023-01-10T01:25:31.992Z,100829.19
2023-01-10T01:25:54.355Z,100846.72
2023-01-10T01:26:15.948Z,100842.22
2023-01-10T01:26:39.784Z,100851.84
2023-01-10T01:27:01.563Z,100846.50
2023-01-10T01:27:23.204Z,100844.63
2023-01-10T01:27:44.961Z,100831.59
2023-01-10T01:28:06.891Z,100845.56
2023-01-10T01:28:29.651Z,100842.03
2023-01-10T01:29:19.306Z,100842.81
2023-01-10T01:29:43.262Z,100850.69
2023-01-10T01:30:06.611Z,100846.34
2023-01-10T01:30:29.247Z,100847.16
2023-01-10T01:30:51.263Z,100848.06
2023-01-10T01:31:13.163Z,100845.44
2023-01-10T01:31:34.907Z,100845.44
2023-01-10T01:31:58.137Z,100848.06
2023-01-10T01:32:21.745Z,100847.38
2023-01-10T01:32:43.628Z,100852.69
2023-01-10T01:33:06.404Z,100842.78
2023-01-10T01:33:28.244Z,100852.56
2023-01-10T01:33:51.459Z,100852.53
2023-01-10T01:34:15.722Z,100844.50
2023-01-10T01:34:37.556Z,100864.78
2023-01-10T01:34:59.261Z,100855.97
2023-01-10T01:35:21.320Z,100861.25
2023-01-10T01:35:43.705Z,100869.38
2023-01-10T01:36:10.498Z,100859.53
2023-01-10T01:36:32.125Z,100872.75
2023-01-10T01:36:53.988Z,100861.16
2023-01-10T01:37:16.294Z,100865.59
2023-01-10T01:37:38.893Z,100873.44
2023-01-10T01:38:00.814Z,100869.78
2023-01-10T01:38:22.412Z,100873.31
2023-01-10T01:38:44.029Z,100841.94
2023-01-10T01:39:06.873Z,100863.78
2023-01-10T01:39:29.024Z,100864.59
2023-01-10T01:39:50.734Z,100871.59
2023-01-10T01:40:14.617Z,100868.97
2023-01-10T01:40:38.913Z,100870.63
2023-01-10T01:41:00.521Z,100859.22
2023-01-10T01:41:40.484Z,100871.47
2023-01-10T01:42:02.192Z,100870.66
2023-01-10T01:42:28.766Z,100873.56
2023-01-10T01:42:55.558Z,100870.09
2023-01-10T01:43:24.323Z,100881.53
2023-01-10T01:44:01.193Z,100875.41
2023-01-10T01:44:24.823Z,100872.81
2023-01-10T01:45:06.529Z,100881.72
2023-01-10T01:45:37.602Z,100880.00
2023-01-10T01:46:04.676Z,100880.97
2023-01-10T01:46:26.398Z,100884.41
2023-01-10T01:46:53.620Z,100881.75
2023-01-10T01:47:25.103Z,100879.00
2023-01-10T01:47:49.942Z,100879.72
2023-01-10T01:48:22.621Z,100885.81
2023-01-10T01:48:44.966Z,100881.50
2023-01-10T01:49:13.457Z,100880.63
2023-01-10T01:49:40.497Z,100868.28
2023-01-10T01:50:03.575Z,100879.63
2023-01-10T01:50:34.621Z,100880.47
2023-01-10T01:51:05.536Z,100857.63
2023-01-10T01:51:31.623Z,100876.81
2023-01-10T01:51:59.569Z,100868.25
2023-01-10T01:52:26.512Z,100885.56
2023-01-10T01:52:51.382Z,100890.81
2023-01-10T01:53:19.661Z,100887.41
2023-01-10T01:53:44.991Z,100891.69
2023-01-10T01:54:11.974Z,100888.31
2023-01-10T01:54:35.475Z,100879.53
2023-01-10T01:54:59.159Z,100893.66
2023-01-10T01:55:21.603Z,100900.94
2023-01-10T01:55:45.989Z,100895.63
2023-01-10T01:56:13.981Z,100901.75
2023-01-10T01:56:42.838Z,100895.00
2023-01-10T01:57:09.924Z,100890.72
2023-01-10T01:57:32.830Z,100898.63
2023-01-10T01:57:59.190Z,100898.66
2023-01-10T01:58:28.611Z,100898.97
2023-01-10T01:58:55.058Z,100892.75
2023-01-10T01:59:22.824Z,100893.66
2023-01-10T01:59:47.748Z,100904.16
2023-01-10T02:00:11.133Z,100902.44
2023-01-10T02:00:35.527Z,100874.56
2023-01-10T02:00:59.485Z,100904.41
2023-01-10T02:01:22.796Z,100892.50
2023-01-10T02:01:49.984Z,100904.91
2023-01-10T02:02:18.179Z,100900.69
2023-01-10T02:02:57.751Z,100904.47
2023-01-10T02:03:23.717Z,100908.66
2023-01-10T02:03:50.214Z,100905.03
2023-01-10T02:04:15.144Z,100904.84
2023-01-10T02:04:42.687Z,100906.53
2023-01-10T02:05:08.404Z,100910.91
2023-01-10T02:05:33.080Z,100906.41
2023-01-10T02:05:55.077Z,100912.47
2023-01-10T02:06:18.527Z,100910.69
2023-01-10T02:06:41.383Z,100917.66
2023-01-10T02:07:03.180Z,100907.84
2023-01-10T02:07:27.343Z,100907.06
2023-01-10T02:07:54.084Z,100914.09
2023-01-10T02:08:16.661Z,100906.03
2023-01-10T02:08:45.525Z,100906.00
2023-01-10T02:09:16.746Z,100911.25
2023-01-10T02:09:43.416Z,100914.13
2023-01-10T02:10:09.315Z,100907.44
2023-01-10T02:10:36.718Z,100904.75
2023-01-10T02:11:08.427Z,100899.19
2023-01-10T02:11:30.353Z,100908.81
2023-01-10T02:11:52.296Z,100907.00
2023-01-10T02:12:15.365Z,100907.78
2023-01-10T02:12:39.474Z,100911.19
2023-01-10T02:13:03.833Z,100912.19
2023-01-10T02:13:28.003Z,100903.41
2023-01-10T02:13:50.861Z,100909.66
2023-01-10T02:14:15.606Z,100911.69
2023-01-10T02:14:38.486Z,100911.22
2023-01-10T02:15:00.589Z,100900.00
2023-01-10T02:15:22.490Z,100905.28
2023-01-10T02:15:44.179Z,100905.19
2023-01-10T02:16:07.290Z,100909.44
2023-01-10T02:16:28.915Z,100905.75
2023-01-10T02:16:50.606Z,100911.00
2023-01-10T02:17:12.516Z,100910.97
2023-01-10T02:17:34.165Z,100905.69
2023-01-10T02:17:59.251Z,100892.63
2023-01-10T02:18:23.108Z,100911.88
2023-01-10T02:18:44.944Z,100906.91
2023-01-10T02:19:18.441Z,100905.81
2023-01-10T02:19:51.572Z,100905.75
2023-01-10T02:20:14.166Z,100907.41
2023-01-10T02:20:43.774Z,100890.78
2023-01-10T02:21:53.571Z,100915.09
2023-01-10T02:22:52.815Z,100913.38
2023-01-10T02:23:54.748Z,100917.75
2023-01-10T02:24:52.832Z,100913.34
2023-01-10T02:25:33.040Z,100915.97
2023-01-10T02:26:27.890Z,100915.13
2023-01-10T02:27:19.732Z,100914.91
2023-01-10T02:27:57.732Z,100918.66
2023-01-10T02:28:57.736Z,100902.81
2023-01-10T02:29:54.259Z,100898.34
2023-01-10T02:31:02.845Z,100911.28
2023-01-10T02:31:53.553Z,100919.75
2023-01-10T02:32:43.487Z,100923.19
2023-01-10T02:33:15.287Z,100919.44
2023-01-10T02:33:45.914Z,100922.03
2023-01-10T02:34:13.297Z,100928.16
2023-01-10T02:34:47.214Z,100922.91
2023-01-10T02:35:18.973Z,100910.66
2023-01-10T02:36:00.052Z,100926.22
2023-01-10T02:36:35.987Z,100926.09
2023-01-10T02:37:03.984Z,100927.13
2023-01-10T02:37:37.222Z,100920.91
2023-01-10T02:38:08.742Z,100929.53
2023-01-10T02:38:47.753Z,100929.47
2023-01-10T02:39:16.296Z,100931.28
2023-01-10T02:39:50.332Z,100925.09
2023-01-10T02:40:23.542Z,100935.06
2023-01-10T02:40:55.272Z,100920.19
2023-01-10T02:41:25.354Z,100929.81
2023-01-10T02:41:56.344Z,100929.84
2023-01-10T02:42:26.758Z,100927.38
2023-01-10T02:42:56.331Z,100916.88
2023-01-10T02:43:23.597Z,100928.03
2023-01-10T02:43:51.473Z,100908.81
2023-01-10T02:44:19.650Z,100939.25
2023-01-10T02:44:47.589Z,100927.72
2023-01-10T02:45:14.693Z,100913.22
2023-01-10T02:45:40.672Z,100929.03
2023-01-10T02:46:05.866Z,100937.63
2023-01-10T02:46:31.272Z,100922.81
2023-01-10T02:46:56.169Z,100935.97
2023-01-10T02:47:17.819Z,100921.19
2023-01-10T02:47:41.374Z,100941.22
2023-01-10T02:48:04.925Z,100923.69
2023-01-10T02:48:26.978Z,100941.91
2023-01-10T02:48:48.653Z,100934.06
2023-01-10T02:49:10.325Z,100936.72
2023-01-10T02:49:42.787Z,100910.53
2023-01-10T02:50:41.873Z,100941.16
2023-01-10T02:51:10.957Z,100920.03
2023-01-10T02:51:33.433Z,100942.75
2023-01-10T02:51:55.856Z,100933.03
2023-01-10T02:52:20.941Z,100944.44
2023-01-10T02:52:43.864Z,100932.22
2023-01-10T02:53:10.854Z,100929.81
2023-01-10T02:53:35.801Z,100934.06
2023-01-10T02:54:04.154Z,100936.81
2023-01-10T02:54:30.686Z,100938.72
2023-01-10T02:54:55.896Z,100943.16
2023-01-10T02:55:18.451Z,100937.75
2023-01-10T02:55:55.810Z,100943.88
2023-01-10T02:56:46.855Z,100938.38
2023-01-10T02:57:23.634Z,100941.75
2023-01-10T02:57:52.964Z,100893.41
2023-01-10T02:58:27.809Z,100942.00
2023-01-10T02:59:07.644Z,100944.63
2023-01-10T02:59:58.877Z,100929.41
2023-01-10T03:00:43.325Z,100928.91
2023-01-10T03:01:14.032Z,100939.66
2023-01-10T03:01:47.700Z,100942.25
2023-01-10T03:02:22.790Z,100943.94
2023-01-10T03:02:58.204Z,100938.50
2023-01-10T03:03:33.516Z,100914.09
2023-01-10T03:04:03.550Z,100943.66
2023-01-10T03:04:33.461Z,100943.66
2023-01-10T03:05:04.031Z,100943.50
2023-01-10T03:05:34.481Z,100934.59
2023-01-10T03:06:11.379Z,100945.44
2023-01-10T03:06:44.809Z,100947.97
2023-01-10T03:07:16.610Z,100935.63
2023-01-10T03:07:43.804Z,100959.31
2023-01-10T03:08:18.542Z,100944.31
2023-01-10T03:08:49.133Z,100948.59
2023-01-10T03:09:20.862Z,100946.91
2023-01-10T03:09:52.666Z,100952.84
2023-01-10T03:10:23.109Z,100951.97
2023-01-10T03:10:50.529Z,100954.44
2023-01-10T03:11:12.371Z,100952.84
2023-01-10T03:11:44.493Z,100958.94
2023-01-10T03:12:12.739Z,100963.53
2023-01-10T03:12:42.574Z,100968.69
2023-01-10T03:13:10.332Z,100968.75
2023-01-10T03:13:36.627Z,100962.50
2023-01-10T03:14:01.621Z,100964.28
2023-01-10T03:14:28.036Z,100964.38
2023-01-10T03:14:51.397Z,100951.22
2023-01-10T03:15:17.104Z,100972.19
2023-01-10T03:15:42.558Z,100965.06
2023-01-10T03:16:07.951Z,100977.38
2023-01-10T03:16:32.295Z,100958.97
2023-01-10T03:16:59.461Z,100974.75
2023-01-10T03:17:25.302Z,100966.75
2023-01-10T03:17:51.704Z,100976.41
2023-01-10T03:18:19.393Z,100964.00
2023-01-10T03:18:43.836Z,100969.28
2023-01-10T03:19:10.788Z,100970.28
2023-01-10T03:19:39.279Z,100965.81
2023-01-10T03:20:04.996Z,100980.81
2023-01-10T03:20:29.543Z,100972.88
2023-01-10T03:20:53.957Z,100976.50
2023-01-10T03:21:19.077Z,100979.13
2023-01-10T03:21:43.440Z,100981.91
2023-01-10T03:22:06.742Z,100978.38
2023-01-10T03:22:31.957Z,100981.06
2023-01-10T03:22:55.815Z,100958.34
2023-01-10T03:23:21.282Z,100981.91
2023-01-10T03:23:44.235Z,100953.88
2023-01-10T03:24:11.313Z,100949.50
2023-01-10T03:24:36.451Z,100977.38
2023-01-10T03:25:01.107Z,100980.00
2023-01-10T03:25:27.741Z,100984.38
2023-01-10T03:25:52.120Z,100979.03
2023-01-10T03:26:15.681Z,100974.56
2023-01-10T03:26:47.089Z,100980.75
2023-01-10T03:27:14.807Z,100980.75
2023-01-10T03:27:41.667Z,100980.72
2023-01-10T03:28:07.125Z,100982.47
2023-01-10T03:28:33.846Z,100979.88
2023-01-10T03:29:01.932Z,100966.97
2023-01-10T03:29:28.818Z,100980.88
2023-01-10T03:29:56.949Z,100983.38
2023-01-10T03:30:26.563Z,100989.56
2023-01-10T03:30:52.442Z,100981.63
2023-01-10T03:31:19.649Z,100957.97
2023-01-10T03:31:47.950Z,100987.81
2023-01-10T03:32:15.263Z,100987.91
2023-01-10T03:32:39.655Z,100994.09
2023-01-10T03:33:02.703Z,100967.94
2023-01-10T03:33:27.834Z,100974.06
2023-01-10T03:33:49.972Z,100987.91
2023-01-10T03:34:13.697Z,100989.63
2023-01-10T03:34:36.090Z,100980.78
2023-01-10T03:35:01.218Z,100978.94
2023-01-10T03:35:31.821Z,100980.69
2023-01-10T03:36:05.613Z,100980.56
2023-01-10T03:36:31.939Z,100981.63
2023-01-10T03:37:05.558Z,100950.34
2023-01-10T03:37:36.988Z,100988.72
2023-01-10T03:38:06.856Z,100986.94
2023-01-10T03:38:38.475Z,100966.03
2023-01-10T03:39:08.808Z,100995.63
2023-01-10T03:39:34.668Z,100971.00
2023-01-10T03:40:06.011Z,100977.16
2023-01-10T03:40:36.961Z,100989.47
2023-01-10T03:41:06.551Z,100986.00
2023-01-10T03:41:37.483Z,100991.31
2023-01-10T03:42:05.730Z,100989.47
2023-01-10T03:42:55.609Z,100983.47
2023-01-10T03:43:41.812Z,100990.50
2023-01-10T03:44:31.395Z,100985.53
2023-01-10T03:45:01.073Z,100982.13
2023-01-10T03:45:28.912Z,100989.13
2023-01-10T03:45:59.806Z,100990.91
2023-01-10T03:46:27.811Z,100984.75
2023-01-10T03:46:52.677Z,100990.16
2023-01-10T03:47:22.404Z,100995.34
2023-01-10T03:47:49.606Z,100986.59
2023-01-10T03:48:14.314Z,100988.47
2023-01-10T03:48:39.486Z,100983.97
2023-01-10T03:49:04.936Z,101006.69
2023-01-10T03:49:29.982Z,100992.72
2023-01-10T03:49:56.478Z,101001.31
2023-01-10T03:50:21.059Z,100999.56
2023-01-10T03:50:46.245Z,100995.22
2023-01-10T03:51:10.031Z,101001.31
2023-01-10T03:51:32.843Z,100993.47
2023-01-10T03:51:56.847Z,101009.19
2023-01-10T03:52:21.176Z,101004.72
2023-01-10T03:52:43.725Z,101008.25
2023-01-10T03:53:05.765Z,101009.97
2023-01-10T03:53:27.870Z,101010.88
2023-01-10T03:53:49.546Z,101013.56
2023-01-10T03:54:12.761Z,101013.50
2023-01-10T03:54:34.468Z,101017.94
2023-01-10T03:54:58.974Z,101006.69
2023-01-10T03:55:24.220Z,101020.59
2023-01-10T03:55:47.348Z,101000.50
2023-01-10T03:56:13.504Z,101016.22
2023-01-10T03:56:44.962Z,100991.91
2023-01-10T03:57:06.848Z,101020.78
2023-01-10T03:57:29.515Z,101019.06
2023-01-10T03:57:51.139Z,101019.19
2023-01-10T03:58:12.718Z,101015.75
2023-01-10T03:58:34.359Z,101019.22
2023-01-10T03:58:57.037Z,101021.00
2023-01-10T03:59:23.196Z,101022.72
2023-01-10T03:59:45.191Z,101020.19
2023-01-10T04:00:09.374Z,101030.75
2023-01-10T04:00:31.809Z,101025.38
2023-01-10T04:00:53.487Z,101026.19
2023-01-10T04:01:15.306Z,101024.41
2023-01-10T04:01:38.001Z,101020.88
2023-01-10T04:01:59.898Z,101033.13
2023-01-10T04:02:21.756Z,101035.75
2023-01-10T04:02:45.901Z,101032.16
2023-01-10T04:03:09.600Z,101023.53
2023-01-10T04:03:31.226Z,101032.34
2023-01-10T04:03:52.910Z,101028.91
2023-01-10T04:04:15.655Z,101028.94
2023-01-10T04:04:37.296Z,101026.25
2023-01-10T04:04:59.392Z,101020.06
2023-01-10T04:05:21.030Z,101030.53
2023-01-10T04:05:43.633Z,101032.25
2023-01-10T04:06:05.919Z,101033.13
2023-01-10T04:06:27.627Z,101030.47
2023-01-10T04:06:49.346Z,101037.44
2023-01-10T04:07:11.989Z,101038.28
2023-01-10T04:07:34.463Z,101025.25
2023-01-10T04:07:56.156Z,101033.91
2023-01-10T04:08:18.732Z,101036.66
2023-01-10T04:08:40.362Z,101036.69
2023-01-10T04:09:02.260Z,101038.75
2023-01-10T04:09:24.017Z,101037.00
2023-01-10T04:09:47.008Z,101046.66
2023-01-10T04:10:09.744Z,101025.22
2023-01-10T04:10:31.600Z,101033.94
2023-01-10T04:10:53.326Z,101033.94
2023-01-10T04:11:15.975Z,101046.19
2023-01-10T04:11:37.911Z,101045.25
2023-01-10T04:11:59.635Z,101040.88
2023-01-10T04:12:21.324Z,101045.22
2023-01-10T04:12:44.173Z,101045.25
2023-01-10T04:13:06.403Z,101054.94
2023-01-10T04:13:28.088Z,101051.41
2023-01-10T04:13:49.791Z,101050.44
2023-01-10T04:14:12.563Z,101055.03
2023-01-10T04:14:34.239Z,101052.28
2023-01-10T04:14:55.864Z,101044.28
2023-01-10T04:15:17.485Z,101055.16
2023-01-10T04:15:40.057Z,101053.38
2023-01-10T04:16:01.732Z,101053.31
2023-01-10T04:16:23.586Z,101050.66
2023-01-10T04:16:45.373Z,101057.59
2023-01-10T04:17:08.042Z,101046.13
2023-01-10T04:17:29.694Z,101051.63
2023-01-10T04:17:53.069Z,101056.94
2023-01-10T04:18:15.772Z,101054.25
2023-01-10T04:18:38.521Z,101056.78
2023-01-10T04:19:00.108Z,101053.19
2023-01-10T04:19:21.843Z,101047.13
2023-01-10T04:19:44.110Z,101050.91
2023-01-10T04:20:07.461Z,101057.06
2023-01-10T04:20:29.065Z,101045.69
2023-01-10T04:20:52.221Z,101055.69
2023-01-10T04:21:14.946Z,101056.78
2023-01-10T04:21:36.619Z,101054.25
2023-01-10T04:21:58.307Z,101046.47
2023-01-10T04:22:19.882Z,101050.66
2023-01-10T04:22:41.502Z,101041.03
2023-01-10T04:23:04.044Z,101040.91
2023-01-10T04:23:25.736Z,101046.88
2023-01-10T04:23:47.401Z,101059.88
2023-01-10T04:24:09.139Z,101060.72
2023-01-10T04:24:31.748Z,101064.41
2023-01-10T04:24:54.363Z,101064.34
2023-01-10T04:25:16.219Z,101067.06
2023-01-10T04:25:37.908Z,101041.59
2023-01-10T04:26:00.554Z,101061.56
2023-01-10T04:26:22.206Z,101058.03
2023-01-10T04:26:44.798Z,101061.56
2023-01-10T04:27:06.522Z,101063.19
2023-01-10T04:27:29.169Z,101032.53
2023-01-10T04:27:51.572Z,101058.59
2023-01-10T04:28:13.310Z,101062.09
2023-01-10T04:28:35.008Z,101047.31
2023-01-10T04:28:56.632Z,101059.34
2023-01-10T04:29:19.477Z,101057.50
2023-01-10T04:29:41.114Z,101035.84
2023-01-10T04:30:02.886Z,101067.22
2023-01-10T04:30:24.542Z,101069.06
2023-01-10T04:30:47.107Z,101068.97
2023-01-10T04:31:08.836Z,101062.16
2023-01-10T04:31:30.497Z,101064.09
2023-01-10T04:31:53.153Z,101065.88
2023-01-10T04:32:14.859Z,101066.75
2023-01-10T04:32:36.637Z,101054.53
2023-01-10T04:32:59.638Z,101065.00
2023-01-10T04:33:22.533Z,101065.91
2023-01-10T04:33:44.216Z,101066.66
2023-01-10T04:34:06.014Z,101005.56
2023-01-10T04:34:27.635Z,101071.84
2023-01-10T04:34:50.316Z,101071.94
2023-01-10T04:35:11.905Z,101069.31
2023-01-10T04:35:33.684Z,101068.41
2023-01-10T04:35:55.408Z,101062.25
2023-01-10T04:36:18.058Z,101069.28
2023-01-10T04:36:39.998Z,101054.41
2023-01-10T04:37:01.692Z,101068.34
2023-01-10T04:37:24.286Z,101056.16
2023-01-10T04:37:45.963Z,101065.59
2023-01-10T04:38:07.531Z,101075.25
2023-01-10T04:38:29.326Z,101067.22
2023-01-10T04:38:51.993Z,101072.63
2023-01-10T04:39:13.694Z,101070.84
2023-01-10T04:39:35.321Z,101074.56
2023-01-10T04:39:56.964Z,101066.63
2023-01-10T04:40:23.277Z,101069.19
2023-01-10T04:40:45.216Z,101073.59
2023-01-10T04:41:06.935Z,101075.25
2023-01-10T04:41:28.919Z,101065.66
2023-01-10T04:41:51.454Z,101074.38
2023-01-10T04:42:13.770Z,101064.69
2023-01-10T04:42:35.415Z,101074.25
2023-01-10T04:42:57.093Z,101069.84
2023-01-10T04:43:19.747Z,101080.34
2023-01-10T04:43:41.363Z,101079.47
2023-01-10T04:44:04.403Z,101075.91
2023-01-10T04:44:26.091Z,101075.84
2023-01-10T04:44:48.635Z,101072.31
2023-01-10T04:45:13.451Z,101067.88
2023-01-10T04:45:35.057Z,101067.22
2023-01-10T04:45:56.734Z,101073.38
2023-01-10T04:46:18.472Z,101073.34
2023-01-10T04:46:41.168Z,101070.72
2023-01-10T04:47:03.066Z,101058.59
2023-01-10T04:47:24.761Z,101068.97
2023-01-10T04:47:50.777Z,101067.66
2023-01-10T04:48:13.942Z,101071.81
2023-01-10T04:48:37.616Z,101064.81
2023-01-10T04:49:02.079Z,101069.19
2023-01-10T04:49:23.997Z,101060.38
2023-01-10T04:49:46.593Z,101070.88